Time;durP1;ratioP1;P1;durP2;ratioP2;P2;SDS_P1;SDS_P2;PMS_P1;PMS_P2;Temp;Humidity;BMP_temperature;BMP_pressure;BME280_temperature;BME280_humidity;BME280_pressure;Samples;Min_cycle;Max_cycle;Signal;HPM_P1;HPM_P2
2022/10/07 00:00:23;;;;;;;11.17;2.20;;;;;;;;;;5110292;28;20254;-68
2022/10/07 00:02:50;;;;;;;10.27;2.37;;;;;;;;;;5110545;28;20192;-68
2022/10/07 00:05:16;;;;;;;6.00;2.20;;;;;;;;;;5110158;28;20193;-68
2022/10/07 00:08:01;;;;;;;7.37;1.80;;;;;;;;;;5110112;28;20176;-68
2022/10/07 00:10:28;;;;;;;6.97;2.03;;;;;;;;;;5110144;28;20197;-68
2022/10/07 00:13:12;;;;;;;5.23;1.67;;;;;;;;;;5094318;28;20172;-68
2022/10/07 00:15:39;;;;;;;4.40;2.30;;;;;;;;;;5110338;28;20184;-68
2022/10/07 00:18:23;;;;;;;6.93;1.97;;;;;;;;;;5094772;28;20176;-69
2022/10/07 00:20:50;;;;;;;8.00;2.17;;;;;;;;;;5110236;28;20195;-68
2022/10/07 00:23:35;;;;;;;8.83;2.40;;;;;;;;;;5110561;28;20180;-68
2022/10/07 00:26:02;;;;;;;11.90;2.10;;;;;;;;;;5109892;28;20195;-68
2022/10/07 00:28:29;;;;;;;11.30;2.60;;;;;;;;;;5091153;28;20213;-68
2022/10/07 00:30:56;;;;;;;6.93;2.10;;;;;;;;;;5108681;28;20284;-68
2022/10/07 00:33:23;;;;;;;10.23;2.47;;;;;;;;;;5108913;28;20189;-68
2022/10/07 00:35:50;;;;;;;12.00;2.50;;;;;;;;;;5091755;28;20200;-68
2022/10/07 00:38:17;;;;;;;9.67;2.67;;;;;;;;;;5091550;28;20248;-69
2022/10/07 00:40:44;;;;;;;8.93;2.70;;;;;;;;;;5109324;28;20191;-68
2022/10/07 00:43:18;;;;;;;9.90;2.53;;;;;;;;;;5091438;28;20201;-69
2022/10/07 00:45:45;;;;;;;7.03;2.40;;;;;;;;;;5109801;28;20184;-69
2022/10/07 00:48:14;;;;;;;10.20;2.23;;;;;;;;;;5091826;28;20188;-69
2022/10/07 00:50:41;;;;;;;7.80;2.20;;;;;;;;;;5090696;28;20253;-70
2022/10/07 00:53:09;;;;;;;10.50;2.87;;;;;;;;;;5091237;28;20195;-68
2022/10/07 00:55:36;;;;;;;10.23;2.47;;;;;;;;;;5091623;28;20324;-69
2022/10/07 00:58:03;;;;;;;7.87;2.30;;;;;;;;;;5091140;28;20686;-69
2022/10/07 01:00:30;;;;;;;8.50;2.30;;;;;;;;;;5109553;28;20594;-69
2022/10/07 01:02:57;;;;;;;8.00;2.37;;;;;;;;;;5091525;28;20199;-68
2022/10/07 01:05:24;;;;;;;9.63;2.40;;;;;;;;;;5074819;28;20284;-69
2022/10/07 01:07:51;;;;;;;6.40;1.90;;;;;;;;;;5109875;28;20212;-69
2022/10/07 01:10:25;;;;;;;7.50;2.23;;;;;;;;;;5092249;28;20220;-69
2022/10/07 01:12:56;;;;;;;8.13;1.83;;;;;;;;;;5107784;28;20225;-69
2022/10/07 01:15:29;;;;;;;8.83;2.60;;;;;;;;;;5108010;28;20668;-69
2022/10/07 01:18:08;;;;;;;10.13;2.00;;;;;;;;;;5091698;28;20550;-69
2022/10/07 01:20:35;;;;;;;14.83;2.97;;;;;;;;;;5109752;28;20192;-68
2022/10/07 01:23:05;;;;;;;8.67;2.53;;;;;;;;;;5108055;28;20196;-69
2022/10/07 01:25:48;;;;;;;5.53;1.90;;;;;;;;;;5109406;28;20651;-68
2022/10/07 01:28:17;;;;;;;7.73;2.37;;;;;;;;;;5107169;28;20613;-69
2022/10/07 01:30:45;;;;;;;7.90;1.70;;;;;;;;;;5071027;28;20557;-69
2022/10/07 01:33:13;;;;;;;6.43;2.00;;;;;;;;;;5071252;28;20613;-69
2022/10/07 01:35:41;;;;;;;6.63;1.73;;;;;;;;;;5054097;28;20284;-69
2022/10/07 01:38:08;;;;;;;5.33;1.93;;;;;;;;;;5070361;28;20293;-69
2022/10/07 01:40:39;;;;;;;8.27;2.37;;;;;;;;;;5074327;28;20197;-68
2022/10/07 01:43:23;;;;;;;11.70;2.70;;;;;;;;;;5076949;28;20183;-69
2022/10/07 01:45:50;;;;;;;9.50;2.10;;;;;;;;;;5074215;28;20199;-68
2022/10/07 01:48:17;;;;;;;6.60;1.80;;;;;;;;;;5074583;28;20192;-69
2022/10/07 01:50:44;;;;;;;9.37;2.10;;;;;;;;;;5109138;28;20216;-68
2022/10/07 01:53:25;;;;;;;8.93;2.30;;;;;;;;;;5072930;28;20609;-68
2022/10/07 01:56:11;;;;;;;8.57;2.43;;;;;;;;;;5111626;28;20188;-68
2022/10/07 01:58:58;;;;;;;9.77;2.30;;;;;;;;;;5094587;28;20201;-68
2022/10/07 02:01:56;;;;;;;6.40;2.40;;;;;;;;;;5094450;28;20597;-68
2022/10/07 02:04:29;;;;;;;14.70;2.43;;;;;;;;;;5058323;28;20198;-69
2022/10/07 02:07:10;;;;;;;9.83;2.10;;;;;;;;;;5094447;28;20567;-69
2022/10/07 02:09:36;;;;;;;10.07;2.70;;;;;;;;;;5112783;28;20219;-68
2022/10/07 02:12:09;;;;;;;8.00;3.00;;;;;;;;;;5094011;28;20201;-68
2022/10/07 02:14:37;;;;;;;9.73;3.03;;;;;;;;;;5112454;28;20193;-68
2022/10/07 02:17:06;;;;;;;8.97;2.30;;;;;;;;;;5077325;28;20215;-69
2022/10/07 02:19:34;;;;;;;8.50;2.40;;;;;;;;;;5112440;28;20181;-68
2022/10/07 02:22:03;;;;;;;8.63;2.40;;;;;;;;;;5073680;28;20189;-68
2022/10/07 02:24:32;;;;;;;4.53;2.20;;;;;;;;;;5088008;28;20204;-68
2022/10/07 02:27:00;;;;;;;9.87;3.17;;;;;;;;;;5094082;28;20297;-69
2022/10/07 02:29:27;;;;;;;7.67;2.27;;;;;;;;;;5093747;28;20288;-70
2022/10/07 02:31:56;;;;;;;11.03;2.13;;;;;;;;;;5073501;28;20217;-69
2022/10/07 02:34:24;;;;;;;11.88;3.10;;;;;;;;;;5072783;28;20429;-68
2022/10/07 02:36:59;;;;;;;7.53;2.57;;;;;;;;;;5079209;28;20320;-69
2022/10/07 02:39:27;;;;;;;9.63;2.70;;;;;;;;;;5077428;28;20193;-68
2022/10/07 02:41:57;;;;;;;8.63;2.30;;;;;;;;;;5111026;28;20208;-69
2022/10/07 02:44:34;;;;;;;6.67;2.30;;;;;;;;;;5094290;28;20177;-69
2022/10/07 02:47:03;;;;;;;9.80;2.60;;;;;;;;;;5093415;28;20204;-69
2022/10/07 02:49:30;;;;;;;8.63;2.30;;;;;;;;;;5077206;28;20212;-68
2022/10/07 02:52:01;;;;;;;8.30;2.17;;;;;;;;;;5073412;28;20205;-68
2022/10/07 02:54:33;;;;;;;10.40;2.13;;;;;;;;;;5069772;28;20537;-68
2022/10/07 02:57:00;;;;;;;7.00;2.20;;;;;;;;;;5093339;28;20261;-69
2022/10/07 02:59:27;;;;;;;5.87;2.00;;;;;;;;;;5093997;28;20188;-68
2022/10/07 03:01:54;;;;;;;6.83;2.00;;;;;;;;;;5076688;28;20287;-68
2022/10/07 03:04:21;;;;;;;7.30;2.10;;;;;;;;;;5093053;28;20640;-68
2022/10/07 03:06:48;;;;;;;7.27;1.97;;;;;;;;;;5093197;28;20664;-68
2022/10/07 03:09:15;;;;;;;9.53;2.10;;;;;;;;;;5110286;28;20192;-68
2022/10/07 03:11:42;;;;;;;8.17;2.10;;;;;;;;;;5093242;28;20221;-68
2022/10/07 03:14:09;;;;;;;4.63;1.77;;;;;;;;;;5110161;28;20188;-68
2022/10/07 03:16:36;;;;;;;8.23;2.20;;;;;;;;;;5089294;28;20194;-68
2022/10/07 03:19:03;;;;;;;8.80;2.20;;;;;;;;;;5091001;28;20231;-68
2022/10/07 03:21:40;;;;;;;10.50;2.40;;;;;;;;;;5072316;28;20197;-69
2022/10/07 03:24:08;;;;;;;10.50;2.73;;;;;;;;;;5072936;28;20530;-68
2022/10/07 03:26:40;;;;;;;8.50;2.60;;;;;;;;;;5090983;28;20197;-68
2022/10/07 03:29:09;;;;;;;10.57;2.43;;;;;;;;;;5090626;28;20185;-67
2022/10/07 03:31:35;;;;;;;6.57;2.43;;;;;;;;;;5093665;28;20700;-69
2022/10/07 03:34:02;;;;;;;8.70;2.37;;;;;;;;;;5090082;28;20664;-69
2022/10/07 03:36:30;;;;;;;6.43;2.20;;;;;;;;;;5074536;28;20220;-70
2022/10/07 03:38:58;;;;;;;9.93;2.50;;;;;;;;;;5075973;28;20197;-68
2022/10/07 03:41:25;;;;;;;9.67;2.93;;;;;;;;;;5109987;28;20215;-68
2022/10/07 03:43:57;;;;;;;8.80;2.13;;;;;;;;;;5092544;28;20192;-69
2022/10/07 03:46:26;;;;;;;7.97;2.60;;;;;;;;;;5092623;28;20197;-70
2022/10/07 03:48:53;;;;;;;8.30;2.97;;;;;;;;;;5075526;28;20659;-70
2022/10/07 03:51:20;;;;;;;10.13;3.07;;;;;;;;;;5075427;28;20681;-67
2022/10/07 03:53:47;;;;;;;8.63;2.80;;;;;;;;;;5108693;28;20193;-69
2022/10/07 03:56:33;;;;;;;10.77;2.83;;;;;;;;;;5092789;28;20282;-71
2022/10/07 03:59:00;;;;;;;12.07;2.90;;;;;;;;;;5110531;28;20864;-72
2022/10/07 04:01:30;;;;;;;11.60;3.10;;;;;;;;;;5092509;28;20200;-70
2022/10/07 04:03:59;;;;;;;7.33;2.90;;;;;;;;;;5092334;28;20200;-69
2022/10/07 04:06:28;;;;;;;5.77;2.73;;;;;;;;;;5108905;28;20211;-68
2022/10/07 04:09:13;;;;;;;9.87;2.73;;;;;;;;;;5092323;28;20164;-72
2022/10/07 04:11:40;;;;;;;11.63;3.23;;;;;;;;;;5092667;28;20203;-68
2022/10/07 04:14:08;;;;;;;9.50;3.00;;;;;;;;;;5106339;28;20192;-69
2022/10/07 04:16:37;;;;;;;12.47;2.70;;;;;;;;;;5060660;28;20552;-71
2022/10/07 04:19:07;;;;;;;6.10;3.00;;;;;;;;;;5080704;28;20207;-71
2022/10/07 04:21:34;;;;;;;7.83;2.83;;;;;;;;;;5079783;28;20227;-71
2022/10/07 04:24:01;;;;;;;10.00;3.10;;;;;;;;;;5080318;28;20201;-72
2022/10/07 04:26:28;;;;;;;10.00;3.13;;;;;;;;;;5080753;28;20196;-72
2022/10/07 04:28:55;;;;;;;7.30;3.13;;;;;;;;;;5063841;28;20217;-72
2022/10/07 04:31:22;;;;;;;11.57;3.33;;;;;;;;;;5081914;28;20216;-70
2022/10/07 04:33:56;;;;;;;8.20;2.90;;;;;;;;;;5078040;28;20194;-70
2022/10/07 04:36:28;;;;;;;12.80;3.40;;;;;;;;;;5072965;28;20306;-69
2022/10/07 04:39:02;;;;;;;11.93;3.40;;;;;;;;;;5096254;28;20208;-71
2022/10/07 04:41:33;;;;;;;11.27;3.77;;;;;;;;;;5068868;28;20966;-70
2022/10/07 04:44:01;;;;;;;10.60;3.43;;;;;;;;;;5083705;28;20718;-70
2022/10/07 04:46:33;;;;;;;9.13;3.70;;;;;;;;;;5085122;28;20196;-72
2022/10/07 04:49:08;;;;;;;10.07;3.93;;;;;;;;;;5085151;28;20645;-69
2022/10/07 04:51:35;;;;;;;9.90;3.70;;;;;;;;;;5091378;28;20221;-69
2022/10/07 04:54:02;;;;;;;9.37;3.47;;;;;;;;;;5083165;28;20207;-69
2022/10/07 04:56:36;;;;;;;9.57;3.30;;;;;;;;;;5080812;28;20243;-70
2022/10/07 04:59:06;;;;;;;9.43;3.40;;;;;;;;;;5081005;28;20310;-69
2022/10/07 05:01:34;;;;;;;13.33;3.70;;;;;;;;;;5079880;28;20274;-70
2022/10/07 05:04:01;;;;;;;10.47;3.80;;;;;;;;;;5080353;28;20196;-69
2022/10/07 05:06:29;;;;;;;9.07;3.70;;;;;;;;;;5079951;28;20201;-71
2022/10/07 05:08:55;;;;;;;11.70;3.73;;;;;;;;;;5063937;28;20300;-71
2022/10/07 05:11:25;;;;;;;12.07;4.03;;;;;;;;;;5079479;28;20213;-72
2022/10/07 05:14:00;;;;;;;8.07;4.03;;;;;;;;;;5083523;28;20277;-71
2022/10/07 05:16:29;;;;;;;9.33;3.60;;;;;;;;;;5078817;28;20204;-71
2022/10/07 05:18:56;;;;;;;12.63;3.60;;;;;;;;;;5082179;28;20192;-72
2022/10/07 05:21:23;;;;;;;12.33;3.63;;;;;;;;;;5070205;28;20703;-71
2022/10/07 05:23:51;;;;;;;6.27;3.60;;;;;;;;;;5090402;28;20311;-70
2022/10/07 05:26:23;;;;;;;8.30;3.90;;;;;;;;;;5091618;28;20559;-69
2022/10/07 05:28:55;;;;;;;10.27;3.50;;;;;;;;;;5089725;28;20201;-69
2022/10/07 05:31:28;;;;;;;12.83;3.50;;;;;;;;;;5091816;28;20213;-70
2022/10/07 05:34:01;;;;;;;7.73;3.50;;;;;;;;;;5089093;28;20387;-69
2022/10/07 05:36:29;;;;;;;6.93;3.50;;;;;;;;;;5090342;28;20218;-69
2022/10/07 05:38:57;;;;;;;8.13;3.77;;;;;;;;;;5095432;28;20716;-69
2022/10/07 05:41:32;;;;;;;9.17;3.80;;;;;;;;;;5095631;28;20192;-69
2022/10/07 05:44:21;;;;;;;9.20;4.70;;;;;;;;;;5095248;28;20286;-69
2022/10/07 05:46:50;;;;;;;9.90;3.97;;;;;;;;;;5095147;28;20222;-69
2022/10/07 05:49:18;;;;;;;11.20;3.90;;;;;;;;;;5095178;28;20648;-68
2022/10/07 05:51:45;;;;;;;16.83;5.10;;;;;;;;;;5094828;28;20273;-69
2022/10/07 05:54:11;;;;;;;10.10;4.23;;;;;;;;;;5113325;28;20191;-69
2022/10/07 05:56:57;;;;;;;7.20;3.77;;;;;;;;;;5094359;28;20173;-68
2022/10/07 05:59:25;;;;;;;14.40;4.30;;;;;;;;;;5075202;28;20178;-69
2022/10/07 06:01:56;;;;;;;7.53;4.23;;;;;;;;;;5074735;28;20674;-68
2022/10/07 06:04:23;;;;;;;10.77;3.70;;;;;;;;;;5092187;28;20239;-69
2022/10/07 06:06:51;;;;;;;10.57;3.87;;;;;;;;;;5074486;28;20209;-68
2022/10/07 06:15:04;;;;;;;10.23;4.03;;;;;;;;;;5074159;28;20209;-69
2022/10/07 06:17:32;;;;;;;12.40;4.37;;;;;;;;;;5074557;28;20197;-69
2022/10/07 06:20:02;;;;;;;14.83;5.13;;;;;;;;;;5090901;28;20224;-68
2022/10/07 06:22:48;;;;;;;11.13;4.30;;;;;;;;;;5074092;28;20176;-69
2022/10/07 06:25:17;;;;;;;11.60;4.47;;;;;;;;;;5090891;28;20201;-69
2022/10/07 06:28:01;;;;;;;11.17;4.57;;;;;;;;;;5059709;28;20314;-69
2022/10/07 06:30:29;;;;;;;12.27;4.07;;;;;;;;;;5073886;28;20200;-68
2022/10/07 06:33:15;;;;;;;10.50;4.27;;;;;;;;;;5074223;28;20189;-68
2022/10/07 06:35:43;;;;;;;12.90;4.67;;;;;;;;;;5074299;28;20195;-69
2022/10/07 06:38:11;;;;;;;15.60;4.30;;;;;;;;;;5107297;28;20408;-69
2022/10/07 06:40:38;;;;;;;13.93;4.63;;;;;;;;;;5077020;28;20202;-69
2022/10/07 06:43:06;;;;;;;11.63;4.33;;;;;;;;;;5111370;28;20596;-69
2022/10/07 06:46:01;;;;;;;9.27;4.03;;;;;;;;;;5112321;28;20287;-69
2022/10/07 06:48:28;;;;;;;12.30;4.60;;;;;;;;;;5093862;28;20193;-69
2022/10/07 06:50:57;;;;;;;15.53;4.00;;;;;;;;;;5110934;28;20596;-69
2022/10/07 06:53:27;;;;;;;9.60;3.70;;;;;;;;;;5093875;28;20707;-69
2022/10/07 06:55:56;;;;;;;8.30;3.90;;;;;;;;;;5093953;28;20196;-69
2022/10/07 06:58:25;;;;;;;9.13;3.63;;;;;;;;;;5094981;28;20188;-69
2022/10/07 07:00:53;;;;;;;7.77;3.37;;;;;;;;;;5056687;28;20193;-69
2022/10/07 07:03:20;;;;;;;12.23;3.60;;;;;;;;;;5075121;28;20199;-69
2022/10/07 07:05:47;;;;;;;14.93;3.90;;;;;;;;;;5075020;28;20185;-69
2022/10/07 07:08:21;;;;;;;9.07;3.30;;;;;;;;;;5090777;28;20563;-69
2022/10/07 07:10:50;;;;;;;7.37;3.57;;;;;;;;;;5073858;28;20547;-70
2022/10/07 07:13:17;;;;;;;7.80;3.40;;;;;;;;;;5073561;28;20252;-69
2022/10/07 07:15:52;;;;;;;8.47;2.97;;;;;;;;;;5077216;28;20219;-69
2022/10/07 07:18:19;;;;;;;11.20;3.17;;;;;;;;;;5110602;28;20192;-70
2022/10/07 07:20:46;;;;;;;6.43;2.57;;;;;;;;;;5093520;28;20177;-69
2022/10/07 07:23:13;;;;;;;8.03;3.03;;;;;;;;;;5093635;28;20188;-69
2022/10/07 07:25:44;;;;;;;6.93;2.53;;;;;;;;;;5110872;28;20287;-69
2022/10/07 07:28:13;;;;;;;7.10;2.37;;;;;;;;;;5111466;28;20260;-70
2022/10/07 07:30:40;;;;;;;7.03;2.50;;;;;;;;;;5093153;28;20185;-69
2022/10/07 07:33:08;;;;;;;9.67;2.90;;;;;;;;;;5092875;28;20239;-69
2022/10/07 07:35:35;;;;;;;8.47;3.23;;;;;;;;;;5092912;28;20188;-69
2022/10/07 07:38:02;;;;;;;7.37;2.67;;;;;;;;;;5077716;28;20840;-69
2022/10/07 07:40:30;;;;;;;7.93;2.87;;;;;;;;;;5072584;28;20563;-69
2022/10/07 07:42:57;;;;;;;9.77;3.00;;;;;;;;;;5073006;28;20217;-69
2022/10/07 07:45:24;;;;;;;10.47;2.70;;;;;;;;;;5090493;28;20205;-70
2022/10/07 07:47:51;;;;;;;9.53;2.73;;;;;;;;;;5073272;28;20246;-69
2022/10/07 07:50:21;;;;;;;10.53;2.63;;;;;;;;;;5072201;28;20189;-69
2022/10/07 07:52:47;;;;;;;11.00;2.97;;;;;;;;;;5090414;28;20255;-69
2022/10/07 07:55:21;;;;;;;7.77;2.40;;;;;;;;;;5072274;28;20224;-69
2022/10/07 07:57:48;;;;;;;5.97;2.03;;;;;;;;;;5055812;28;20190;-69
2022/10/07 08:00:15;;;;;;;7.87;2.30;;;;;;;;;;5072453;28;20556;-69
2022/10/07 08:02:56;;;;;;;6.47;2.10;;;;;;;;;;5072660;28;20285;-70
2022/10/07 08:05:23;;;;;;;8.83;1.87;;;;;;;;;;5055800;28;20317;-69
2022/10/07 08:07:54;;;;;;;6.87;2.03;;;;;;;;;;5089194;28;20225;-69
2022/10/07 08:10:24;;;;;;;10.97;1.70;;;;;;;;;;5071953;28;20497;-69
2022/10/07 08:12:50;;;;;;;6.90;1.70;;;;;;;;;;5072425;28;20243;-69
2022/10/07 08:15:17;;;;;;;5.80;1.90;;;;;;;;;;5071864;28;20193;-69
2022/10/07 08:17:44;;;;;;;6.63;1.80;;;;;;;;;;5072461;28;20193;-69
2022/10/07 08:20:14;;;;;;;5.67;1.60;;;;;;;;;;5071747;28;20188;-69
2022/10/07 08:22:44;;;;;;;4.83;1.93;;;;;;;;;;5088847;28;20193;-68
2022/10/07 08:25:12;;;;;;;4.57;1.50;;;;;;;;;;5088637;28;20213;-69
2022/10/07 08:27:39;;;;;;;7.93;2.10;;;;;;;;;;5088885;28;20193;-69
2022/10/07 08:30:06;;;;;;;7.50;1.77;;;;;;;;;;5088316;28;20965;-70
2022/10/07 08:32:33;;;;;;;7.93;1.93;;;;;;;;;;5089202;28;20308;-68
2022/10/07 08:35:00;;;;;;;7.27;1.70;;;;;;;;;;5071991;28;20597;-69
2022/10/07 08:37:27;;;;;;;5.63;1.90;;;;;;;;;;5076144;28;20258;-68
2022/10/07 08:39:54;;;;;;;6.80;1.87;;;;;;;;;;5110177;28;20193;-68
2022/10/07 08:42:41;;;;;;;8.57;1.90;;;;;;;;;;5092256;28;20189;-69
2022/10/07 08:45:12;;;;;;;5.33;1.30;;;;;;;;;;5109760;28;20200;-69
2022/10/07 08:47:39;;;;;;;6.57;1.63;;;;;;;;;;5092774;28;20189;-68
2022/10/07 08:50:26;;;;;;;9.87;1.97;;;;;;;;;;5109454;28;20177;-69
2022/10/07 08:52:54;;;;;;;5.83;1.60;;;;;;;;;;5092387;28;20544;-68
2022/10/07 08:55:40;;;;;;;6.27;1.77;;;;;;;;;;5096002;28;20844;-69
2022/10/07 08:58:23;;;;;;;6.00;1.60;;;;;;;;;;5071495;28;20185;-69
2022/10/07 09:00:59;;;;;;;3.97;1.33;;;;;;;;;;5089275;28;20185;-69
2022/10/07 09:03:48;;;;;;;6.70;1.63;;;;;;;;;;5087666;28;20223;-69
2022/10/07 09:06:22;;;;;;;8.07;2.07;;;;;;;;;;5089551;28;20227;-69
2022/10/07 09:09:13;;;;;;;5.53;1.50;;;;;;;;;;5089441;28;20180;-69
2022/10/07 09:11:41;;;;;;;5.93;1.83;;;;;;;;;;5071952;28;20252;-69
2022/10/07 09:14:26;;;;;;;2.87;1.73;;;;;;;;;;5089224;28;20188;-69
2022/10/07 09:16:55;;;;;;;8.50;1.80;;;;;;;;;;5075385;28;20215;-69
2022/10/07 09:19:25;;;;;;;7.60;2.00;;;;;;;;;;5091900;28;20618;-69
2022/10/07 09:21:52;;;;;;;8.73;2.00;;;;;;;;;;5091917;28;20313;-69
2022/10/07 09:24:19;;;;;;;8.40;2.00;;;;;;;;;;5091735;28;20192;-70
2022/10/07 09:26:46;;;;;;;4.47;1.53;;;;;;;;;;5109698;28;20188;-70
2022/10/07 09:29:13;;;;;;;7.67;1.70;;;;;;;;;;5110099;28;20196;-69
2022/10/07 09:31:39;;;;;;;7.33;1.40;;;;;;;;;;5072867;28;20201;-69
2022/10/07 09:34:11;;;;;;;9.87;2.00;;;;;;;;;;5089065;28;20189;-70
2022/10/07 09:36:57;;;;;;;6.87;1.50;;;;;;;;;;5074882;28;20304;-69
2022/10/07 09:39:25;;;;;;;6.00;1.77;;;;;;;;;;5109429;28;20219;-69
2022/10/07 09:41:51;;;;;;;5.93;1.83;;;;;;;;;;5110337;28;20192;-70
2022/10/07 09:44:18;;;;;;;5.60;1.23;;;;;;;;;;5109665;28;20196;-70
2022/10/07 09:46:50;;;;;;;3.77;1.50;;;;;;;;;;5091352;28;20897;-69
2022/10/07 09:49:27;;;;;;;6.23;1.90;;;;;;;;;;5108455;28;20192;-69
2022/10/07 09:52:00;;;;;;;7.13;1.83;;;;;;;;;;5109278;28;20189;-70
2022/10/07 09:54:28;;;;;;;8.97;1.67;;;;;;;;;;5091127;28;20196;-70
2022/10/07 09:56:58;;;;;;;5.07;1.47;;;;;;;;;;5090040;28;20189;-71
2022/10/07 09:59:25;;;;;;;6.30;1.87;;;;;;;;;;5088205;28;20720;-70
2022/10/07 10:01:52;;;;;;;4.00;1.40;;;;;;;;;;5089004;28;20189;-69
2022/10/07 10:04:30;;;;;;;5.17;1.67;;;;;;;;;;5054281;28;20748;-69
2022/10/07 10:07:00;;;;;;;5.77;1.40;;;;;;;;;;5054345;28;20280;-69
2022/10/07 10:09:27;;;;;;;6.00;1.33;;;;;;;;;;5070860;28;20193;-69
2022/10/07 10:12:01;;;;;;;6.20;1.40;;;;;;;;;;5071328;28;20196;-69
2022/10/07 10:14:54;;;;;;;5.03;1.50;;;;;;;;;;5072703;28;20188;-69
2022/10/07 10:17:29;;;;;;;6.53;1.40;;;;;;;;;;5109237;28;20224;-69
2022/10/07 10:20:16;;;;;;;5.40;1.30;;;;;;;;;;5094890;28;20662;-69
2022/10/07 10:22:42;;;;;;;7.77;1.60;;;;;;;;;;5112851;28;20195;-70
2022/10/07 10:28:38;;;;;;;4.23;1.50;;;;;;;;;;5111989;28;20185;-69
2022/10/07 10:31:07;;;;;;;5.90;1.40;;;;;;;;;;5111366;28;20177;-70
2022/10/07 10:33:39;;;;;;;4.80;1.27;;;;;;;;;;5110304;28;20219;-70
2022/10/07 10:36:09;;;;;;;5.10;1.70;;;;;;;;;;5111747;28;20185;-70
2022/10/07 10:38:46;;;;;;;4.93;1.60;;;;;;;;;;5092614;28;20189;-70
2022/10/07 10:41:22;;;;;;;5.80;1.80;;;;;;;;;;5074264;28;20540;-71
2022/10/07 10:43:49;;;;;;;5.27;1.40;;;;;;;;;;5091983;28;20295;-72
2022/10/07 10:46:22;;;;;;;4.50;1.40;;;;;;;;;;5091956;28;20548;-70
2022/10/07 10:48:49;;;;;;;4.20;1.53;;;;;;;;;;5074094;28;20553;-70
2022/10/07 10:51:24;;;;;;;5.17;1.80;;;;;;;;;;5091715;28;20256;-69
2022/10/07 10:54:11;;;;;;;5.07;1.40;;;;;;;;;;5092153;28;20216;-70
2022/10/07 10:57:14;;;;;;;8.37;1.67;;;;;;;;;;5076506;28;20179;-70
2022/10/07 10:59:50;;;;;;;3.93;1.40;;;;;;;;;;5092054;28;20338;-71
2022/10/07 11:02:17;;;;;;;6.30;1.50;;;;;;;;;;5091374;28;20185;-70
2022/10/07 11:04:48;;;;;;;6.60;1.70;;;;;;;;;;5090129;28;20268;-70
2022/10/07 11:07:20;;;;;;;6.87;1.70;;;;;;;;;;5091642;28;20186;-71
2022/10/07 11:09:48;;;;;;;4.40;1.60;;;;;;;;;;5073203;28;20193;-72
2022/10/07 11:12:20;;;;;;;6.07;1.60;;;;;;;;;;5073634;28;20545;-70
2022/10/07 11:14:49;;;;;;;6.40;1.73;;;;;;;;;;5073544;28;20186;-72
2022/10/07 11:17:22;;;;;;;4.07;1.67;;;;;;;;;;5074568;28;20590;-71
2022/10/07 11:19:56;;;;;;;7.93;1.63;;;;;;;;;;5079112;28;20196;-70
2022/10/07 11:22:34;;;;;;;5.63;1.57;;;;;;;;;;5093731;28;20219;-71
2022/10/07 11:25:05;;;;;;;7.03;1.70;;;;;;;;;;5093230;28;20204;-71
2022/10/07 11:27:50;;;;;;;6.60;1.33;;;;;;;;;;5109981;28;20173;-70
2022/10/07 11:30:18;;;;;;;4.77;1.50;;;;;;;;;;5093472;28;21028;-71
2022/10/07 11:32:56;;;;;;;2.87;1.10;;;;;;;;;;5111222;28;20208;-71
2022/10/07 11:35:22;;;;;;;4.23;1.50;;;;;;;;;;5093508;28;20234;-71
2022/10/07 11:37:51;;;;;;;8.70;1.50;;;;;;;;;;5110553;28;20273;-71
2022/10/07 11:40:18;;;;;;;3.57;1.20;;;;;;;;;;5092619;28;20189;-70
2022/10/07 11:42:46;;;;;;;5.33;1.40;;;;;;;;;;5093138;28;20930;-71
2022/10/07 11:45:33;;;;;;;5.73;1.33;;;;;;;;;;5095854;28;20173;-71
2022/10/07 11:48:01;;;;;;;4.83;1.27;;;;;;;;;;5093210;28;20181;-70
2022/10/07 11:50:48;;;;;;;5.80;1.40;;;;;;;;;;5078661;28;20183;-71
2022/10/07 11:53:19;;;;;;;5.03;1.30;;;;;;;;;;5093047;28;20219;-71
2022/10/07 11:55:46;;;;;;;3.40;1.47;;;;;;;;;;5092919;28;20185;-72
2022/10/07 11:58:36;;;;;;;4.03;1.60;;;;;;;;;;5093288;28;20197;-71
2022/10/07 12:01:21;;;;;;;3.40;1.17;;;;;;;;;;5092866;28;20192;-70
2022/10/07 12:03:48;;;;;;;3.87;1.40;;;;;;;;;;5110517;28;20193;-71
2022/10/07 12:06:32;;;;;;;4.37;1.30;;;;;;;;;;5095586;28;20237;-71
2022/10/07 12:08:59;;;;;;;4.47;1.00;;;;;;;;;;5110868;28;20189;-71
2022/10/07 12:11:35;;;;;;;5.13;1.53;;;;;;;;;;5106899;28;20197;-71
2022/10/07 12:14:32;;;;;;;4.03;1.27;;;;;;;;;;5092468;28;20220;-71
2022/10/07 12:17:17;;;;;;;5.53;1.40;;;;;;;;;;5103384;28;20189;-71
2022/10/07 12:19:44;;;;;;;3.50;1.20;;;;;;;;;;5091626;28;20196;-71
2022/10/07 12:22:11;;;;;;;3.37;1.17;;;;;;;;;;5109659;28;20184;-71
2022/10/07 12:24:39;;;;;;;6.03;1.00;;;;;;;;;;5109341;28;20165;-73
2022/10/07 12:27:13;;;;;;;5.17;1.30;;;;;;;;;;5092657;28;20218;-72
2022/10/07 12:29:58;;;;;;;6.07;1.40;;;;;;;;;;5109842;28;20165;-72
2022/10/07 12:32:41;;;;;;;3.40;1.10;;;;;;;;;;5092605;28;20189;-72
2022/10/07 12:35:34;;;;;;;4.03;1.30;;;;;;;;;;5107964;28;20539;-72
2022/10/07 12:38:09;;;;;;;4.80;1.10;;;;;;;;;;5109104;28;20227;-72
2022/10/07 12:41:00;;;;;;;7.07;1.40;;;;;;;;;;5077945;28;20188;-72
2022/10/07 12:43:30;;;;;;;5.13;1.40;;;;;;;;;;5109956;28;20177;-72
2022/10/07 12:45:56;;;;;;;4.70;1.27;;;;;;;;;;5110353;28;20192;-72
2022/10/07 12:48:23;;;;;;;6.63;1.63;;;;;;;;;;5075242;28;20200;-72
2022/10/07 12:50:51;;;;;;;7.57;1.60;;;;;;;;;;5092052;28;20180;-72
2022/10/07 12:53:18;;;;;;;4.30;1.40;;;;;;;;;;5075214;28;20694;-72
2022/10/07 12:55:49;;;;;;;4.47;1.30;;;;;;;;;;5091932;28;20185;-72
2022/10/07 13:01:10;;;;;;;5.07;1.13;;;;;;;;;;5091226;28;20193;-72
2022/10/07 13:03:43;;;;;;;5.27;1.50;;;;;;;;;;5108918;28;20184;-72
2022/10/07 13:06:37;;;;;;;3.97;1.07;;;;;;;;;;5094254;28;20169;-71
2022/10/07 13:09:18;;;;;;;3.87;1.30;;;;;;;;;;5109773;28;20652;-71
2022/10/07 13:12:11;;;;;;;6.53;1.80;;;;;;;;;;5094782;28;20173;-71
2022/10/07 13:15:00;;;;;;;3.40;1.27;;;;;;;;;;5092030;28;20768;-71
2022/10/07 13:17:43;;;;;;;5.53;1.40;;;;;;;;;;5071538;28;20200;-71
2022/10/07 13:20:13;;;;;;;8.30;1.60;;;;;;;;;;5103588;28;20184;-71
2022/10/07 13:23:05;;;;;;;4.63;1.50;;;;;;;;;;5110238;28;20655;-79
2022/10/07 13:25:35;;;;;;;6.37;1.50;;;;;;;;;;5110619;28;20281;-77
2022/10/07 13:28:02;;;;;;;7.10;1.60;;;;;;;;;;5100665;28;20194;-77
2022/10/07 13:30:31;;;;;;;6.33;1.60;;;;;;;;;;5056645;28;20200;-77
2022/10/07 13:33:18;;;;;;;2.87;1.20;;;;;;;;;;5091804;28;20565;-77
2022/10/07 13:35:45;;;;;;;3.63;1.20;;;;;;;;;;5057386;28;20189;-76
2022/10/07 13:38:19;;;;;;;5.27;1.30;;;;;;;;;;5102587;28;20247;-77
2022/10/07 13:40:51;;;;;;;3.37;1.37;;;;;;;;;;5086008;28;20300;-77
2022/10/07 13:43:18;;;;;;;4.63;1.27;;;;;;;;;;5091219;28;20247;-77
2022/10/07 13:45:45;;;;;;;5.37;1.50;;;;;;;;;;5085607;28;20192;-75
2022/10/07 13:48:15;;;;;;;3.77;1.27;;;;;;;;;;5098917;28;20188;-75
2022/10/07 13:50:41;;;;;;;6.30;1.30;;;;;;;;;;5105423;28;20275;-79
2022/10/07 13:53:29;;;;;;;3.07;1.33;;;;;;;;;;5090597;28;20205;-79
2022/10/07 13:56:22;;;;;;;5.87;1.70;;;;;;;;;;5101446;28;20189;-80
2022/10/07 13:58:53;;;;;;;6.67;1.57;;;;;;;;;;5111310;28;20209;-80
2022/10/07 14:01:22;;;;;;;4.20;1.43;;;;;;;;;;5115069;28;20184;-80
2022/10/07 14:03:58;;;;;;;5.20;1.40;;;;;;;;;;5094393;28;20611;-79
2022/10/07 14:06:35;;;;;;;5.93;1.50;;;;;;;;;;5094531;28;20283;-79
2022/10/07 14:09:04;;;;;;;3.43;1.40;;;;;;;;;;5093506;28;20193;-76
2022/10/07 14:11:31;;;;;;;4.20;1.70;;;;;;;;;;5111512;27;20193;-77
2022/10/07 14:13:58;;;;;;;5.43;1.83;;;;;;;;;;5119216;27;20219;-77
2022/10/07 14:16:28;;;;;;;3.30;1.73;;;;;;;;;;5110229;27;20188;-76
2022/10/07 14:18:57;;;;;;;7.97;1.70;;;;;;;;;;5085218;28;20217;-79
2022/10/07 14:21:25;;;;;;;10.60;2.07;;;;;;;;;;5115640;27;20198;-76
2022/10/07 14:23:57;;;;;;;6.20;1.60;;;;;;;;;;5109732;27;20188;-76
2022/10/07 14:26:25;;;;;;;4.37;1.60;;;;;;;;;;5124416;27;20184;-76
2022/10/07 14:28:52;;;;;;;5.80;1.80;;;;;;;;;;5119214;27;20245;-78
2022/10/07 14:37:01;;;;;;;6.67;2.30;;;;;;;;;;5101297;27;20282;-75
2022/10/07 14:39:31;;;;;;;5.73;1.67;;;;;;;;;;5073034;28;20549;-77
2022/10/07 14:41:57;;;;;;;6.00;1.87;;;;;;;;;;5056201;28;20198;-75
2022/10/07 14:44:24;;;;;;;4.13;1.67;;;;;;;;;;5058428;28;20186;-77
2022/10/07 14:47:20;;;;;;;7.33;1.60;;;;;;;;;;5074775;28;20664;-76
2022/10/07 14:49:47;;;;;;;6.27;1.50;;;;;;;;;;5083882;28;20266;-76
2022/10/07 14:52:20;;;;;;;3.13;1.57;;;;;;;;;;5082056;28;20182;-76
2022/10/07 14:54:47;;;;;;;4.70;1.40;;;;;;;;;;5043374;28;20224;-76
2022/10/07 14:57:33;;;;;;;3.80;1.57;;;;;;;;;;5075146;28;20177;-77
2022/10/07 15:00:00;;;;;;;6.30;1.70;;;;;;;;;;5079913;28;20185;-77
2022/10/07 15:02:28;;;;;;;8.53;2.00;;;;;;;;;;5070221;28;20594;-77
2022/10/07 15:04:55;;;;;;;5.80;1.80;;;;;;;;;;5067402;28;20200;-77
2022/10/07 15:07:21;;;;;;;4.27;1.60;;;;;;;;;;5086641;28;20255;-76
2022/10/07 15:10:17;;;;;;;5.43;1.90;;;;;;;;;;5086030;28;20644;-78
2022/10/07 15:12:43;;;;;;;7.93;1.80;;;;;;;;;;5104946;28;20551;-76
2022/10/07 15:15:28;;;;;;;4.80;1.73;;;;;;;;;;5082988;28;20193;-76
2022/10/07 15:17:57;;;;;;;6.07;1.87;;;;;;;;;;5071691;28;20192;-77
2022/10/07 15:20:41;;;;;;;4.50;1.77;;;;;;;;;;5071766;28;20257;-76
2022/10/07 15:23:08;;;;;;;7.70;1.97;;;;;;;;;;5093799;28;20236;-73
2022/10/07 15:25:37;;;;;;;9.20;2.10;;;;;;;;;;5083361;28;20189;-72